Terminal Aerodrome Forecast
Issued by NWS

Home | Current Version | Previous Version | Graphics & Text | Print | Product List | Glossary On
Versions: 1 2 3 4 5 6 7 8 9 10 11 12 13 14 15 16 17 18 19 20 21 22 23
000
FTUS43 KBIS 291317 AAA
TAFMOT
TAF AMD
KMOT 291317Z 2913/3012 34016G21KT P6SM OVC025
      TEMPO 2914/2917 BKN035
     FM291700 34012G17KT P6SM SCT040
     FM291800 36011KT P6SM SKC
     FM300000 02007KT P6SM SKC
     FM300600 09004KT P6SM SKC=

USA.gov is the U.S. government's official web portal to all federal, state and local government web resources and services.